sensor_id;sensor_type;location;lat;lon;timestamp;P1;durP1;ratioP1;P2;durP2;ratioP2
84115;SDS011;74211;52.234;9.860;2024-02-14T00:02:03;3.60;;;2.45;;
84115;SDS011;74211;52.234;9.860;2024-02-14T00:04:37;2.80;;;2.17;;
84115;SDS011;74211;52.234;9.860;2024-02-14T00:07:07;6.10;;;2.15;;
84115;SDS011;74211;52.234;9.860;2024-02-14T00:09:40;3.05;;;2.15;;
84115;SDS011;74211;52.234;9.860;2024-02-14T00:12:12;5.28;;;2.97;;
84115;SDS011;74211;52.234;9.860;2024-02-14T00:17:24;4.13;;;2.55;;
84115;SDS011;74211;52.234;9.860;2024-02-14T00:20:00;3.17;;;2.03;;
84115;SDS011;74211;52.234;9.860;2024-02-14T00:22:31;4.53;;;2.42;;
84115;SDS011;74211;52.234;9.860;2024-02-14T00:25:03;3.55;;;2.45;;
84115;SDS011;74211;52.234;9.860;2024-02-14T00:27:35;5.35;;;3.05;;
84115;SDS011;74211;52.234;9.860;2024-02-14T00:30:06;5.40;;;2.28;;
84115;SDS011;74211;52.234;9.860;2024-02-14T00:32:37;2.97;;;2.33;;
84115;SDS011;74211;52.234;9.860;2024-02-14T00:35:10;4.75;;;2.90;;
84115;SDS011;74211;52.234;9.860;2024-02-14T00:37:41;2.72;;;2.40;;
84115;SDS011;74211;52.234;9.860;2024-02-14T00:40:12;3.15;;;2.47;;
84115;SDS011;74211;52.234;9.860;2024-02-14T00:42:44;3.13;;;2.20;;
84115;SDS011;74211;52.234;9.860;2024-02-14T00:45:15;3.00;;;2.53;;
84115;SDS011;74211;52.234;9.860;2024-02-14T00:47:49;6.35;;;3.20;;
84115;SDS011;74211;52.234;9.860;2024-02-14T00:50:22;3.67;;;2.13;;
84115;SDS011;74211;52.234;9.860;2024-02-14T00:52:53;3.92;;;2.13;;
84115;SDS011;74211;52.234;9.860;2024-02-14T00:55:27;4.32;;;2.47;;
84115;SDS011;74211;52.234;9.860;2024-02-14T00:57:57;3.58;;;2.85;;
84115;SDS011;74211;52.234;9.860;2024-02-14T01:00:29;6.80;;;2.63;;
84115;SDS011;74211;52.234;9.860;2024-02-14T01:03:06;4.30;;;3.42;;
84115;SDS011;74211;52.234;9.860;2024-02-14T01:05:43;3.53;;;2.58;;
84115;SDS011;74211;52.234;9.860;2024-02-14T01:08:22;5.10;;;3.20;;
84115;SDS011;74211;52.234;9.860;2024-02-14T01:10:53;7.43;;;3.08;;
84115;SDS011;74211;52.234;9.860;2024-02-14T01:13:24;7.78;;;2.60;;
84115;SDS011;74211;52.234;9.860;2024-02-14T01:15:55;4.95;;;2.80;;
84115;SDS011;74211;52.234;9.860;2024-02-14T01:18:32;4.40;;;2.50;;
84115;SDS011;74211;52.234;9.860;2024-02-14T01:21:06;4.57;;;2.63;;
84115;SDS011;74211;52.234;9.860;2024-02-14T01:23:36;5.15;;;2.47;;
84115;SDS011;74211;52.234;9.860;2024-02-14T01:26:07;4.40;;;2.38;;
84115;SDS011;74211;52.234;9.860;2024-02-14T01:28:37;3.92;;;2.53;;
84115;SDS011;74211;52.234;9.860;2024-02-14T01:31:08;3.03;;;2.20;;
84115;SDS011;74211;52.234;9.860;2024-02-14T01:36:15;3.97;;;2.40;;
84115;SDS011;74211;52.234;9.860;2024-02-14T01:38:45;5.03;;;2.50;;
84115;SDS011;74211;52.234;9.860;2024-02-14T01:41:16;3.80;;;2.35;;
84115;SDS011;74211;52.234;9.860;2024-02-14T01:43:51;5.15;;;2.72;;
84115;SDS011;74211;52.234;9.860;2024-02-14T01:46:21;9.63;;;3.20;;
84115;SDS011;74211;52.234;9.860;2024-02-14T01:48:52;5.93;;;3.92;;
84115;SDS011;74211;52.234;9.860;2024-02-14T01:51:27;4.93;;;2.80;;
84115;SDS011;74211;52.234;9.860;2024-02-14T01:53:57;6.85;;;3.42;;
84115;SDS011;74211;52.234;9.860;2024-02-14T01:56:30;4.32;;;2.95;;
84115;SDS011;74211;52.234;9.860;2024-02-14T01:59:01;6.07;;;4.25;;
84115;SDS011;74211;52.234;9.860;2024-02-14T02:01:34;6.50;;;4.28;;
84115;SDS011;74211;52.234;9.860;2024-02-14T02:04:06;7.30;;;2.80;;
84115;SDS011;74211;52.234;9.860;2024-02-14T02:06:40;6.78;;;3.03;;
84115;SDS011;74211;52.234;9.860;2024-02-14T02:09:13;6.03;;;3.10;;
84115;SDS011;74211;52.234;9.860;2024-02-14T02:11:48;4.75;;;2.60;;
84115;SDS011;74211;52.234;9.860;2024-02-14T02:14:20;6.18;;;2.70;;
84115;SDS011;74211;52.234;9.860;2024-02-14T02:16:51;5.68;;;3.15;;
84115;SDS011;74211;52.234;9.860;2024-02-14T02:19:21;9.02;;;3.75;;
84115;SDS011;74211;52.234;9.860;2024-02-14T02:21:56;5.88;;;3.10;;
84115;SDS011;74211;52.234;9.860;2024-02-14T02:24:28;7.97;;;3.17;;
84115;SDS011;74211;52.234;9.860;2024-02-14T02:26:59;4.80;;;3.55;;
84115;SDS011;74211;52.234;9.860;2024-02-14T02:29:29;5.38;;;2.92;;
84115;SDS011;74211;52.234;9.860;2024-02-14T02:32:01;7.13;;;3.63;;
84115;SDS011;74211;52.234;9.860;2024-02-14T02:34:32;12.27;;;3.92;;
84115;SDS011;74211;52.234;9.860;2024-02-14T02:37:03;7.63;;;3.35;;
84115;SDS011;74211;52.234;9.860;2024-02-14T02:39:38;7.07;;;4.40;;
84115;SDS011;74211;52.234;9.860;2024-02-14T02:42:08;4.63;;;3.25;;
84115;SDS011;74211;52.234;9.860;2024-02-14T02:44:39;6.40;;;3.47;;
84115;SDS011;74211;52.234;9.860;2024-02-14T02:47:09;4.90;;;2.65;;
84115;SDS011;74211;52.234;9.860;2024-02-14T02:49:39;5.50;;;2.95;;
84115;SDS011;74211;52.234;9.860;2024-02-14T02:52:11;4.78;;;3.15;;
84115;SDS011;74211;52.234;9.860;2024-02-14T02:54:44;4.95;;;3.33;;
84115;SDS011;74211;52.234;9.860;2024-02-14T02:57:14;3.90;;;2.40;;
84115;SDS011;74211;52.234;9.860;2024-02-14T02:59:45;5.82;;;2.58;;
84115;SDS011;74211;52.234;9.860;2024-02-14T03:02:16;4.40;;;2.97;;
84115;SDS011;74211;52.234;9.860;2024-02-14T03:04:52;5.40;;;3.22;;
84115;SDS011;74211;52.234;9.860;2024-02-14T03:07:24;6.45;;;2.53;;
84115;SDS011;74211;52.234;9.860;2024-02-14T03:10:02;6.60;;;2.88;;
84115;SDS011;74211;52.234;9.860;2024-02-14T03:12:36;6.40;;;3.63;;
84115;SDS011;74211;52.234;9.860;2024-02-14T03:15:08;5.32;;;3.47;;
84115;SDS011;74211;52.234;9.860;2024-02-14T03:17:46;6.80;;;4.30;;
84115;SDS011;74211;52.234;9.860;2024-02-14T03:20:17;4.28;;;3.05;;
84115;SDS011;74211;52.234;9.860;2024-02-14T03:22:47;5.18;;;3.03;;
84115;SDS011;74211;52.234;9.860;2024-02-14T03:25:20;9.30;;;3.75;;
84115;SDS011;74211;52.234;9.860;2024-02-14T03:27:51;5.53;;;2.50;;
84115;SDS011;74211;52.234;9.860;2024-02-14T03:30:35;6.03;;;3.97;;
84115;SDS011;74211;52.234;9.860;2024-02-14T03:33:06;4.47;;;2.55;;
84115;SDS011;74211;52.234;9.860;2024-02-14T03:35:39;6.10;;;3.20;;
84115;SDS011;74211;52.234;9.860;2024-02-14T03:38:13;5.53;;;3.45;;
84115;SDS011;74211;52.234;9.860;2024-02-14T03:41:04;6.53;;;2.40;;
84115;SDS011;74211;52.234;9.860;2024-02-14T03:43:34;5.57;;;2.88;;
84115;SDS011;74211;52.234;9.860;2024-02-14T03:46:05;4.78;;;2.60;;
84115;SDS011;74211;52.234;9.860;2024-02-14T03:48:46;4.63;;;2.85;;
84115;SDS011;74211;52.234;9.860;2024-02-14T03:51:19;5.70;;;3.55;;
84115;SDS011;74211;52.234;9.860;2024-02-14T03:53:53;7.35;;;3.00;;
84115;SDS011;74211;52.234;9.860;2024-02-14T03:56:27;4.05;;;2.92;;
84115;SDS011;74211;52.234;9.860;2024-02-14T03:59:00;5.22;;;2.67;;
84115;SDS011;74211;52.234;9.860;2024-02-14T04:01:33;4.80;;;2.88;;
84115;SDS011;74211;52.234;9.860;2024-02-14T04:04:03;4.57;;;2.78;;
84115;SDS011;74211;52.234;9.860;2024-02-14T04:06:34;7.00;;;3.05;;
84115;SDS011;74211;52.234;9.860;2024-02-14T04:09:05;7.40;;;4.45;;
84115;SDS011;74211;52.234;9.860;2024-02-14T04:11:39;5.82;;;3.33;;
84115;SDS011;74211;52.234;9.860;2024-02-14T04:14:10;5.10;;;3.28;;
84115;SDS011;74211;52.234;9.860;2024-02-14T04:16:40;4.68;;;2.78;;
84115;SDS011;74211;52.234;9.860;2024-02-14T04:19:12;4.57;;;2.95;;
84115;SDS011;74211;52.234;9.860;2024-02-14T04:24:15;4.88;;;3.10;;
84115;SDS011;74211;52.234;9.860;2024-02-14T04:26:52;5.80;;;4.30;;
84115;SDS011;74211;52.234;9.860;2024-02-14T04:29:24;4.43;;;2.60;;
84115;SDS011;74211;52.234;9.860;2024-02-14T04:32:01;7.40;;;2.67;;
84115;SDS011;74211;52.234;9.860;2024-02-14T04:34:32;6.20;;;3.05;;
84115;SDS011;74211;52.234;9.860;2024-02-14T04:37:06;10.63;;;3.38;;
84115;SDS011;74211;52.234;9.860;2024-02-14T04:39:39;6.43;;;3.33;;
84115;SDS011;74211;52.234;9.860;2024-02-14T04:42:12;6.30;;;2.47;;
84115;SDS011;74211;52.234;9.860;2024-02-14T04:44:42;6.57;;;3.28;;
84115;SDS011;74211;52.234;9.860;2024-02-14T04:47:13;7.97;;;3.28;;
84115;SDS011;74211;52.234;9.860;2024-02-14T04:49:43;6.70;;;3.30;;
84115;SDS011;74211;52.234;9.860;2024-02-14T04:52:13;5.15;;;3.60;;
84115;SDS011;74211;52.234;9.860;2024-02-14T04:54:44;4.00;;;2.63;;
84115;SDS011;74211;52.234;9.860;2024-02-14T04:57:17;4.95;;;3.40;;
84115;SDS011;74211;52.234;9.860;2024-02-14T04:59:48;6.25;;;3.90;;
84115;SDS011;74211;52.234;9.860;2024-02-14T05:02:19;6.72;;;3.45;;
84115;SDS011;74211;52.234;9.860;2024-02-14T05:04:50;6.32;;;2.92;;
84115;SDS011;74211;52.234;9.860;2024-02-14T05:07:21;5.43;;;2.90;;
84115;SDS011;74211;52.234;9.860;2024-02-14T05:09:52;6.15;;;3.00;;
84115;SDS011;74211;52.234;9.860;2024-02-14T05:12:26;7.13;;;3.88;;
84115;SDS011;74211;52.234;9.860;2024-02-14T05:14:56;6.63;;;3.90;;
84115;SDS011;74211;52.234;9.860;2024-02-14T05:17:26;5.60;;;3.75;;
84115;SDS011;74211;52.234;9.860;2024-02-14T05:19:57;7.07;;;4.07;;
84115;SDS011;74211;52.234;9.860;2024-02-14T05:22:29;5.35;;;4.10;;
84115;SDS011;74211;52.234;9.860;2024-02-14T05:24:59;7.78;;;3.70;;
84115;SDS011;74211;52.234;9.860;2024-02-14T05:27:33;5.13;;;3.53;;
84115;SDS011;74211;52.234;9.860;2024-02-14T05:30:04;5.57;;;3.83;;
84115;SDS011;74211;52.234;9.860;2024-02-14T05:32:36;5.00;;;4.18;;
84115;SDS011;74211;52.234;9.860;2024-02-14T05:35:07;6.57;;;3.20;;
84115;SDS011;74211;52.234;9.860;2024-02-14T05:37:37;5.78;;;3.33;;
84115;SDS011;74211;52.234;9.860;2024-02-14T05:40:08;4.28;;;2.47;;
84115;SDS011;74211;52.234;9.860;2024-02-14T05:42:42;5.78;;;3.28;;
84115;SDS011;74211;52.234;9.860;2024-02-14T05:45:13;11.00;;;3.85;;
84115;SDS011;74211;52.234;9.860;2024-02-14T05:47:44;7.40;;;3.08;;
84115;SDS011;74211;52.234;9.860;2024-02-14T05:50:15;10.25;;;3.85;;
84115;SDS011;74211;52.234;9.860;2024-02-14T05:52:46;5.30;;;3.08;;
84115;SDS011;74211;52.234;9.860;2024-02-14T05:55:16;4.20;;;3.35;;
84115;SDS011;74211;52.234;9.860;2024-02-14T05:57:49;5.60;;;3.50;;
84115;SDS011;74211;52.234;9.860;2024-02-14T06:00:20;4.53;;;2.97;;
84115;SDS011;74211;52.234;9.860;2024-02-14T06:02:55;7.53;;;2.90;;
84115;SDS011;74211;52.234;9.860;2024-02-14T06:05:25;5.00;;;3.10;;
84115;SDS011;74211;52.234;9.860;2024-02-14T06:07:56;4.53;;;3.10;;
84115;SDS011;74211;52.234;9.860;2024-02-14T06:10:26;5.30;;;3.08;;
84115;SDS011;74211;52.234;9.860;2024-02-14T06:12:59;5.47;;;3.30;;
84115;SDS011;74211;52.234;9.860;2024-02-14T06:15:29;4.32;;;3.08;;
84115;SDS011;74211;52.234;9.860;2024-02-14T06:18:00;5.28;;;2.80;;
84115;SDS011;74211;52.234;9.860;2024-02-14T06:20:31;4.93;;;4.10;;
84115;SDS011;74211;52.234;9.860;2024-02-14T06:23:02;7.25;;;3.88;;
84115;SDS011;74211;52.234;9.860;2024-02-14T06:25:37;3.75;;;2.85;;
84115;SDS011;74211;52.234;9.860;2024-02-14T06:28:11;5.93;;;3.00;;
84115;SDS011;74211;52.234;9.860;2024-02-14T06:30:41;4.28;;;2.72;;
84115;SDS011;74211;52.234;9.860;2024-02-14T06:33:12;5.75;;;3.33;;
84115;SDS011;74211;52.234;9.860;2024-02-14T06:35:43;5.20;;;2.90;;
84115;SDS011;74211;52.234;9.860;2024-02-14T06:38:14;5.78;;;3.40;;
84115;SDS011;74211;52.234;9.860;2024-02-14T06:40:45;3.70;;;2.25;;
84115;SDS011;74211;52.234;9.860;2024-02-14T06:43:18;4.00;;;3.63;;
84115;SDS011;74211;52.234;9.860;2024-02-14T06:45:51;4.32;;;3.53;;
84115;SDS011;74211;52.234;9.860;2024-02-14T06:48:21;6.75;;;3.55;;
84115;SDS011;74211;52.234;9.860;2024-02-14T06:50:52;6.50;;;3.38;;
84115;SDS011;74211;52.234;9.860;2024-02-14T06:53:27;4.47;;;3.88;;
84115;SDS011;74211;52.234;9.860;2024-02-14T06:55:57;4.30;;;3.53;;
84115;SDS011;74211;52.234;9.860;2024-02-14T06:58:30;7.55;;;4.00;;
84115;SDS011;74211;52.234;9.860;2024-02-14T07:01:00;3.85;;;2.67;;
84115;SDS011;74211;52.234;9.860;2024-02-14T07:03:30;4.30;;;3.42;;
84115;SDS011;74211;52.234;9.860;2024-02-14T07:06:00;4.43;;;3.30;;
84115;SDS011;74211;52.234;9.860;2024-02-14T07:08:31;4.88;;;3.30;;
84115;SDS011;74211;52.234;9.860;2024-02-14T07:11:01;4.82;;;4.00;;
84115;SDS011;74211;52.234;9.860;2024-02-14T07:13:34;8.48;;;3.00;;
84115;SDS011;74211;52.234;9.860;2024-02-14T07:16:05;6.18;;;3.60;;
84115;SDS011;74211;52.234;9.860;2024-02-14T07:18:37;5.57;;;2.72;;
84115;SDS011;74211;52.234;9.860;2024-02-14T07:21:08;5.65;;;3.13;;
84115;SDS011;74211;52.234;9.860;2024-02-14T07:23:38;4.55;;;3.05;;
84115;SDS011;74211;52.234;9.860;2024-02-14T07:26:09;4.45;;;2.70;;
84115;SDS011;74211;52.234;9.860;2024-02-14T07:28:42;3.30;;;2.67;;
84115;SDS011;74211;52.234;9.860;2024-02-14T07:31:12;4.60;;;3.15;;
84115;SDS011;74211;52.234;9.860;2024-02-14T07:33:43;6.63;;;3.75;;
84115;SDS011;74211;52.234;9.860;2024-02-14T07:36:15;6.40;;;3.72;;
84115;SDS011;74211;52.234;9.860;2024-02-14T07:38:45;5.68;;;3.30;;
84115;SDS011;74211;52.234;9.860;2024-02-14T07:41:17;5.60;;;2.88;;
84115;SDS011;74211;52.234;9.860;2024-02-14T07:43:49;4.78;;;4.03;;
84115;SDS011;74211;52.234;9.860;2024-02-14T07:46:19;5.18;;;3.88;;
84115;SDS011;74211;52.234;9.860;2024-02-14T07:48:53;4.25;;;3.38;;
84115;SDS011;74211;52.234;9.860;2024-02-14T07:51:24;8.80;;;3.95;;
84115;SDS011;74211;52.234;9.860;2024-02-14T07:53:55;5.65;;;3.25;;
84115;SDS011;74211;52.234;9.860;2024-02-14T07:56:26;4.72;;;3.20;;
84115;SDS011;74211;52.234;9.860;2024-02-14T07:58:59;5.35;;;3.40;;
84115;SDS011;74211;52.234;9.860;2024-02-14T08:01:29;6.13;;;2.55;;
84115;SDS011;74211;52.234;9.860;2024-02-14T08:04:00;5.25;;;3.38;;
84115;SDS011;74211;52.234;9.860;2024-02-14T08:06:31;4.30;;;3.13;;
84115;SDS011;74211;52.234;9.860;2024-02-14T08:09:01;3.35;;;2.60;;
84115;SDS011;74211;52.234;9.860;2024-02-14T08:11:37;5.47;;;2.95;;
84115;SDS011;74211;52.234;9.860;2024-02-14T08:14:10;5.50;;;4.25;;
84115;SDS011;74211;52.234;9.860;2024-02-14T08:16:40;6.45;;;3.55;;
84115;SDS011;74211;52.234;9.860;2024-02-14T08:19:10;6.00;;;2.80;;
84115;SDS011;74211;52.234;9.860;2024-02-14T08:21:43;7.40;;;3.40;;
84115;SDS011;74211;52.234;9.860;2024-02-14T08:24:13;4.65;;;2.70;;
84115;SDS011;74211;52.234;9.860;2024-02-14T08:26:44;4.50;;;3.00;;
84115;SDS011;74211;52.234;9.860;2024-02-14T08:29:18;4.95;;;3.13;;
84115;SDS011;74211;52.234;9.860;2024-02-14T08:31:48;4.25;;;2.60;;
84115;SDS011;74211;52.234;9.860;2024-02-14T08:34:22;3.60;;;2.88;;
84115;SDS011;74211;52.234;9.860;2024-02-14T08:36:53;3.67;;;2.88;;
84115;SDS011;74211;52.234;9.860;2024-02-14T08:39:23;5.03;;;2.63;;
84115;SDS011;74211;52.234;9.860;2024-02-14T08:41:56;3.92;;;3.28;;
84115;SDS011;74211;52.234;9.860;2024-02-14T08:44:37;5.05;;;2.92;;
84115;SDS011;74211;52.234;9.860;2024-02-14T08:47:08;4.35;;;2.55;;
84115;SDS011;74211;52.234;9.860;2024-02-14T08:49:40;4.13;;;3.47;;
84115;SDS011;74211;52.234;9.860;2024-02-14T08:52:11;4.65;;;2.58;;
84115;SDS011;74211;52.234;9.860;2024-02-14T08:54:41;4.45;;;3.40;;
84115;SDS011;74211;52.234;9.860;2024-02-14T08:57:12;4.05;;;2.63;;
84115;SDS011;74211;52.234;9.860;2024-02-14T08:59:46;4.38;;;2.72;;
84115;SDS011;74211;52.234;9.860;2024-02-14T09:02:17;4.38;;;3.35;;
84115;SDS011;74211;52.234;9.860;2024-02-14T09:04:49;5.50;;;3.03;;
84115;SDS011;74211;52.234;9.860;2024-02-14T09:07:20;4.30;;;3.22;;
84115;SDS011;74211;52.234;9.860;2024-02-14T09:09:50;4.70;;;3.50;;
84115;SDS011;74211;52.234;9.860;2024-02-14T09:12:20;5.60;;;3.78;;
84115;SDS011;74211;52.234;9.860;2024-02-14T09:14:54;5.78;;;4.50;;
84115;SDS011;74211;52.234;9.860;2024-02-14T09:17:25;5.93;;;3.85;;
84115;SDS011;74211;52.234;9.860;2024-02-14T09:19:55;5.40;;;3.75;;
84115;SDS011;74211;52.234;9.860;2024-02-14T09:22:26;5.78;;;4.32;;
84115;SDS011;74211;52.234;9.860;2024-02-14T09:24:56;6.40;;;4.47;;
84115;SDS011;74211;52.234;9.860;2024-02-14T09:27:26;8.88;;;5.10;;
84115;SDS011;74211;52.234;9.860;2024-02-14T09:30:00;8.63;;;4.28;;
84115;SDS011;74211;52.234;9.860;2024-02-14T09:32:37;5.70;;;4.35;;
84115;SDS011;74211;52.234;9.860;2024-02-14T09:35:08;6.20;;;4.18;;
84115;SDS011;74211;52.234;9.860;2024-02-14T09:37:38;8.18;;;4.82;;
84115;SDS011;74211;52.234;9.860;2024-02-14T09:40:09;7.47;;;5.78;;
84115;SDS011;74211;52.234;9.860;2024-02-14T09:42:43;7.82;;;4.97;;
84115;SDS011;74211;52.234;9.860;2024-02-14T09:45:18;8.93;;;4.53;;
84115;SDS011;74211;52.234;9.860;2024-02-14T09:47:52;6.18;;;4.82;;
84115;SDS011;74211;52.234;9.860;2024-02-14T09:50:22;5.60;;;4.05;;
84115;SDS011;74211;52.234;9.860;2024-02-14T09:52:54;8.48;;;5.13;;
84115;SDS011;74211;52.234;9.860;2024-02-14T09:55:25;6.05;;;4.90;;
84115;SDS011;74211;52.234;9.860;2024-02-14T09:57:56;6.07;;;4.47;;
84115;SDS011;74211;52.234;9.860;2024-02-14T10:00:34;6.20;;;4.15;;
84115;SDS011;74211;52.234;9.860;2024-02-14T10:03:04;7.03;;;4.85;;
84115;SDS011;74211;52.234;9.860;2024-02-14T10:05:35;6.43;;;4.30;;
84115;SDS011;74211;52.234;9.860;2024-02-14T10:08:06;6.03;;;4.32;;
84115;SDS011;74211;52.234;9.860;2024-02-14T10:10:37;7.78;;;4.28;;
84115;SDS011;74211;52.234;9.860;2024-02-14T10:13:07;7.35;;;4.35;;
84115;SDS011;74211;52.234;9.860;2024-02-14T10:15:40;5.78;;;4.47;;
84115;SDS011;74211;52.234;9.860;2024-02-14T10:18:10;5.68;;;4.85;;
84115;SDS011;74211;52.234;9.860;2024-02-14T10:20:41;7.82;;;5.40;;
84115;SDS011;74211;52.234;9.860;2024-02-14T10:23:21;6.07;;;4.75;;
84115;SDS011;74211;52.234;9.860;2024-02-14T10:25:52;7.70;;;4.53;;
84115;SDS011;74211;52.234;9.860;2024-02-14T10:28:24;6.68;;;5.53;;
84115;SDS011;74211;52.234;9.860;2024-02-14T10:31:12;5.93;;;3.97;;
84115;SDS011;74211;52.234;9.860;2024-02-14T10:33:43;5.55;;;4.38;;
84115;SDS011;74211;52.234;9.860;2024-02-14T10:36:13;7.05;;;3.90;;
84115;SDS011;74211;52.234;9.860;2024-02-14T10:38:46;7.43;;;4.78;;
84115;SDS011;74211;52.234;9.860;2024-02-14T10:41:18;8.80;;;4.70;;
84115;SDS011;74211;52.234;9.860;2024-02-14T10:43:49;4.28;;;3.88;;
84115;SDS011;74211;52.234;9.860;2024-02-14T10:46:22;8.05;;;4.57;;
84115;SDS011;74211;52.234;9.860;2024-02-14T10:49:00;4.22;;;3.55;;
84115;SDS011;74211;52.234;9.860;2024-02-14T10:51:34;5.28;;;4.07;;
84115;SDS011;74211;52.234;9.860;2024-02-14T10:54:07;5.03;;;3.83;;
84115;SDS011;74211;52.234;9.860;2024-02-14T10:56:41;4.65;;;3.72;;
84115;SDS011;74211;52.234;9.860;2024-02-14T10:59:15;6.00;;;3.60;;
84115;SDS011;74211;52.234;9.860;2024-02-14T11:01:51;4.88;;;3.42;;
84115;SDS011;74211;52.234;9.860;2024-02-14T11:04:27;6.00;;;4.30;;
84115;SDS011;74211;52.234;9.860;2024-02-14T11:06:58;5.78;;;3.97;;
84115;SDS011;74211;52.234;9.860;2024-02-14T11:09:32;5.10;;;3.72;;
84115;SDS011;74211;52.234;9.860;2024-02-14T11:12:06;5.35;;;3.85;;
84115;SDS011;74211;52.234;9.860;2024-02-14T11:14:41;5.15;;;3.45;;
84115;SDS011;74211;52.234;9.860;2024-02-14T11:17:15;4.75;;;3.45;;
84115;SDS011;74211;52.234;9.860;2024-02-14T11:19:50;5.78;;;4.20;;
84115;SDS011;74211;52.234;9.860;2024-02-14T11:22:22;4.45;;;3.53;;
84115;SDS011;74211;52.234;9.860;2024-02-14T11:24:53;5.47;;;4.30;;
84115;SDS011;74211;52.234;9.860;2024-02-14T11:27:23;4.85;;;3.28;;
84115;SDS011;74211;52.234;9.860;2024-02-14T11:30:00;7.03;;;4.15;;
84115;SDS011;74211;52.234;9.860;2024-02-14T11:32:34;5.18;;;3.60;;
84115;SDS011;74211;52.234;9.860;2024-02-14T11:35:10;5.55;;;4.05;;
84115;SDS011;74211;52.234;9.860;2024-02-14T11:37:43;5.90;;;4.13;;
84115;SDS011;74211;52.234;9.860;2024-02-14T11:40:14;5.90;;;3.83;;
84115;SDS011;74211;52.234;9.860;2024-02-14T11:42:44;7.20;;;4.03;;
84115;SDS011;74211;52.234;9.860;2024-02-14T11:45:16;5.75;;;3.45;;
84115;SDS011;74211;52.234;9.860;2024-02-14T11:47:50;9.68;;;3.50;;
84115;SDS011;74211;52.234;9.860;2024-02-14T11:50:20;4.32;;;3.03;;
84115;SDS011;74211;52.234;9.860;2024-02-14T11:52:51;4.43;;;3.90;;
84115;SDS011;74211;52.234;9.860;2024-02-14T11:55:27;5.35;;;3.70;;
84115;SDS011;74211;52.234;9.860;2024-02-14T11:57:59;4.07;;;3.53;;
84115;SDS011;74211;52.234;9.860;2024-02-14T12:00:30;5.25;;;4.57;;
84115;SDS011;74211;52.234;9.860;2024-02-14T12:03:06;3.75;;;3.38;;
84115;SDS011;74211;52.234;9.860;2024-02-14T12:05:37;4.13;;;3.22;;
84115;SDS011;74211;52.234;9.860;2024-02-14T12:08:13;4.88;;;3.33;;
84115;SDS011;74211;52.234;9.860;2024-02-14T12:10:45;4.65;;;3.13;;
84115;SDS011;74211;52.234;9.860;2024-02-14T12:13:21;4.65;;;3.30;;
84115;SDS011;74211;52.234;9.860;2024-02-14T12:15:52;4.75;;;3.80;;
84115;SDS011;74211;52.234;9.860;2024-02-14T12:18:25;5.22;;;3.90;;
84115;SDS011;74211;52.234;9.860;2024-02-14T12:21:03;4.75;;;4.22;;
84115;SDS011;74211;52.234;9.860;2024-02-14T12:23:36;5.22;;;3.55;;
84115;SDS011;74211;52.234;9.860;2024-02-14T12:26:10;4.57;;;3.60;;
84115;SDS011;74211;52.234;9.860;2024-02-14T12:28:46;6.57;;;3.35;;
84115;SDS011;74211;52.234;9.860;2024-02-14T12:31:21;10.15;;;4.50;;
84115;SDS011;74211;52.234;9.860;2024-02-14T12:33:55;4.90;;;4.03;;
84115;SDS011;74211;52.234;9.860;2024-02-14T12:36:27;5.45;;;4.43;;
84115;SDS011;74211;52.234;9.860;2024-02-14T12:38:58;6.13;;;4.35;;
84115;SDS011;74211;52.234;9.860;2024-02-14T12:41:30;6.43;;;4.60;;
84115;SDS011;74211;52.234;9.860;2024-02-14T12:44:02;5.55;;;3.83;;
84115;SDS011;74211;52.234;9.860;2024-02-14T12:46:36;5.03;;;4.35;;
84115;SDS011;74211;52.234;9.860;2024-02-14T12:49:13;6.55;;;4.22;;
84115;SDS011;74211;52.234;9.860;2024-02-14T12:51:44;5.43;;;4.93;;
84115;SDS011;74211;52.234;9.860;2024-02-14T12:54:16;6.07;;;4.03;;
84115;SDS011;74211;52.234;9.860;2024-02-14T12:56:47;5.43;;;3.90;;
84115;SDS011;74211;52.234;9.860;2024-02-14T12:59:25;5.28;;;3.75;;
84115;SDS011;74211;52.234;9.860;2024-02-14T13:01:55;5.00;;;4.20;;
84115;SDS011;74211;52.234;9.860;2024-02-14T13:04:30;6.93;;;4.53;;
84115;SDS011;74211;52.234;9.860;2024-02-14T13:07:02;4.88;;;3.92;;
84115;SDS011;74211;52.234;9.860;2024-02-14T13:09:33;6.68;;;3.70;;
84115;SDS011;74211;52.234;9.860;2024-02-14T13:12:07;4.32;;;2.95;;
84115;SDS011;74211;52.234;9.860;2024-02-14T13:14:40;4.72;;;3.70;;
84115;SDS011;74211;52.234;9.860;2024-02-14T13:17:11;4.75;;;3.58;;
84115;SDS011;74211;52.234;9.860;2024-02-14T13:19:45;5.07;;;3.53;;
84115;SDS011;74211;52.234;9.860;2024-02-14T13:22:19;5.95;;;3.72;;
84115;SDS011;74211;52.234;9.860;2024-02-14T13:24:51;6.95;;;4.07;;
84115;SDS011;74211;52.234;9.860;2024-02-14T13:27:23;5.07;;;3.95;;
84115;SDS011;74211;52.234;9.860;2024-02-14T13:29:54;4.60;;;3.35;;
84115;SDS011;74211;52.234;9.860;2024-02-14T13:32:25;4.32;;;3.60;;
84115;SDS011;74211;52.234;9.860;2024-02-14T13:34:57;4.22;;;3.70;;
84115;SDS011;74211;52.234;9.860;2024-02-14T13:37:28;4.20;;;3.80;;
84115;SDS011;74211;52.234;9.860;2024-02-14T13:39:59;4.43;;;3.15;;
84115;SDS011;74211;52.234;9.860;2024-02-14T13:42:31;4.70;;;4.30;;
84115;SDS011;74211;52.234;9.860;2024-02-14T13:45:02;4.22;;;3.25;;
84115;SDS011;74211;52.234;9.860;2024-02-14T13:47:33;4.22;;;3.50;;
84115;SDS011;74211;52.234;9.860;2024-02-14T13:50:08;4.45;;;4.05;;
84115;SDS011;74211;52.234;9.860;2024-02-14T13:52:39;5.55;;;3.33;;
84115;SDS011;74211;52.234;9.860;2024-02-14T13:55:13;3.90;;;3.33;;
84115;SDS011;74211;52.234;9.860;2024-02-14T13:57:43;3.88;;;3.10;;
84115;SDS011;74211;52.234;9.860;2024-02-14T14:00:14;3.50;;;2.95;;
84115;SDS011;74211;52.234;9.860;2024-02-14T14:02:45;5.32;;;3.40;;
84115;SDS011;74211;52.234;9.860;2024-02-14T14:05:19;4.97;;;3.85;;
84115;SDS011;74211;52.234;9.860;2024-02-14T14:07:50;4.10;;;3.45;;
84115;SDS011;74211;52.234;9.860;2024-02-14T14:10:25;4.13;;;3.80;;
84115;SDS011;74211;52.234;9.860;2024-02-14T14:12:55;5.20;;;3.85;;
84115;SDS011;74211;52.234;9.860;2024-02-14T14:15:26;4.38;;;3.97;;
84115;SDS011;74211;52.234;9.860;2024-02-14T14:18:01;4.07;;;3.67;;
84115;SDS011;74211;52.234;9.860;2024-02-14T14:20:38;3.83;;;3.20;;
84115;SDS011;74211;52.234;9.860;2024-02-14T14:23:08;4.53;;;3.33;;
84115;SDS011;74211;52.234;9.860;2024-02-14T14:25:42;5.20;;;3.65;;
84115;SDS011;74211;52.234;9.860;2024-02-14T14:28:25;3.63;;;3.33;;
84115;SDS011;74211;52.234;9.860;2024-02-14T14:30:58;3.65;;;3.20;;
84115;SDS011;74211;52.234;9.860;2024-02-14T14:33:31;4.03;;;3.60;;
84115;SDS011;74211;52.234;9.860;2024-02-14T14:36:04;4.47;;;3.33;;
84115;SDS011;74211;52.234;9.860;2024-02-14T14:38:36;4.05;;;3.17;;
84115;SDS011;74211;52.234;9.860;2024-02-14T14:41:07;3.72;;;3.05;;
84115;SDS011;74211;52.234;9.860;2024-02-14T14:43:38;4.38;;;3.33;;
84115;SDS011;74211;52.234;9.860;2024-02-14T14:46:14;3.92;;;3.22;;
84115;SDS011;74211;52.234;9.860;2024-02-14T14:48:47;3.90;;;3.50;;
84115;SDS011;74211;52.234;9.860;2024-02-14T14:51:24;5.05;;;4.38;;
84115;SDS011;74211;52.234;9.860;2024-02-14T14:53:56;4.28;;;3.88;;
84115;SDS011;74211;52.234;9.860;2024-02-14T14:56:27;3.78;;;3.38;;
84115;SDS011;74211;52.234;9.860;2024-02-14T14:58:59;4.00;;;3.40;;
84115;SDS011;74211;52.234;9.860;2024-02-14T15:01:30;4.15;;;3.35;;
84115;SDS011;74211;52.234;9.860;2024-02-14T15:04:01;6.28;;;3.20;;
84115;SDS011;74211;52.234;9.860;2024-02-14T15:06:36;3.97;;;2.85;;
84115;SDS011;74211;52.234;9.860;2024-02-14T15:09:08;4.03;;;3.08;;
84115;SDS011;74211;52.234;9.860;2024-02-14T15:11:40;3.22;;;2.80;;
84115;SDS011;74211;52.234;9.860;2024-02-14T15:14:14;3.55;;;3.25;;
84115;SDS011;74211;52.234;9.860;2024-02-14T15:16:46;3.97;;;2.88;;
84115;SDS011;74211;52.234;9.860;2024-02-14T15:19:16;2.83;;;2.35;;
84115;SDS011;74211;52.234;9.860;2024-02-14T15:21:51;2.90;;;2.15;;
84115;SDS011;74211;52.234;9.860;2024-02-14T15:24:21;3.03;;;2.58;;
84115;SDS011;74211;52.234;9.860;2024-02-14T15:26:54;2.70;;;2.08;;